Terminal Aerodrome Forecast
Issued by NWS Twin Cities, MN

Home | Current Version | Previous Version | Text Only | Print | Product List | Glossary On
Versions: 1 2 3 4 5 6 7 8 9 10 11 12 13 14 15
079
FTUS43 KMPX 010520
TAFSTC
TAF
KSTC 010520Z 0106/0206 32009KT P6SM -SN BKN009 OVC014
     FM011000 33010KT P6SM VCSH OVC008
     FM011600 32009KT P6SM OVC014
     FM012200 31006KT P6SM OVC028=

USA.gov is the U.S. government's official web portal to all federal, state and local government web resources and services.